Time;durP1;ratioP1;P1;durP2;ratioP2;P2;SDS_P1;SDS_P2;PMS_P1;PMS_P2;Temp;Humidity;BMP_temperature;BMP_pressure;BME280_temperature;BME280_humidity;BME280_pressure;Samples;Min_cycle;Max_cycle;Signal;HPM_P1;HPM_P2
2021/07/02 00:00:32;;;;;;;20.73;13.68;;;18.70;91.30;;;;;;3562824;40;20773;-77
2021/07/02 00:02:59;;;;;;;19.20;13.70;;;18.70;91.30;;;;;;3560094;40;20752;-77
2021/07/02 00:05:25;;;;;;;17.73;13.15;;;18.80;91.40;;;;;;3561502;40;20026;-77
2021/07/02 00:07:51;;;;;;;16.65;12.65;;;18.70;91.30;;;;;;3561583;40;20081;-77
2021/07/02 00:10:16;;;;;;;20.85;13.82;;;18.80;91.40;;;;;;3564008;40;20045;-77
2021/07/02 00:12:42;;;;;;;16.52;12.60;;;18.80;91.40;;;;;;3564311;40;20024;-77
2021/07/02 00:15:08;;;;;;;19.10;13.55;;;18.80;91.40;;;;;;3564737;40;20126;-77
2021/07/02 00:17:34;;;;;;;18.65;12.82;;;18.80;91.40;;;;;;3561557;40;20048;-77
2021/07/02 00:20:00;;;;;;;16.60;12.80;;;18.80;91.40;;;;;;3565838;40;20068;-77
2021/07/02 00:22:25;;;;;;;17.60;13.43;;;18.80;91.40;;;;;;3563382;40;20076;-77
2021/07/02 00:24:51;;;;;;;18.60;13.05;;;18.80;91.30;;;;;;3559933;40;20033;-77
2021/07/02 00:27:17;;;;;;;17.00;12.55;;;18.80;91.30;;;;;;3563164;40;20042;-77
2021/07/02 00:29:43;;;;;;;16.75;12.23;;;18.80;91.30;;;;;;3564183;40;20050;-77
2021/07/02 00:32:10;;;;;;;16.27;12.18;;;18.80;91.40;;;;;;3565543;40;20045;-77
2021/07/02 00:34:36;;;;;;;14.35;12.23;;;18.80;91.30;;;;;;3565416;40;20056;-77
2021/07/02 00:37:02;;;;;;;16.10;12.93;;;18.90;91.40;;;;;;3562504;40;20033;-77
2021/07/02 00:39:28;;;;;;;14.68;11.25;;;18.90;91.30;;;;;;3561781;40;20048;-77
2021/07/02 00:41:54;;;;;;;16.63;12.90;;;18.90;91.40;;;;;;3561001;40;20040;-77
2021/07/02 00:44:40;;;;;;;14.52;11.40;;;18.90;91.40;;;;;;3564418;40;20068;-77
2021/07/02 00:47:06;;;;;;;16.60;11.80;;;18.90;91.40;;;;;;3563855;40;20304;-77
2021/07/02 00:49:36;;;;;;;13.88;11.07;;;18.90;91.30;;;;;;3562396;40;20045;-77
2021/07/02 00:52:04;;;;;;;14.10;11.50;;;18.90;91.30;;;;;;3562290;40;20056;-77
2021/07/02 00:54:32;;;;;;;16.02;10.82;;;18.90;91.40;;;;;;3559446;40;20040;-77
2021/07/02 00:56:59;;;;;;;14.85;11.05;;;18.90;91.60;;;;;;3563317;40;20045;-77
2021/07/02 00:59:25;;;;;;;15.45;11.85;;;18.90;91.30;;;;;;3562692;40;20037;-77
2021/07/02 01:01:51;;;;;;;14.18;11.15;;;18.90;91.30;;;;;;3563535;40;20766;-77
2021/07/02 01:04:17;;;;;;;15.15;10.77;;;18.90;91.30;;;;;;3566349;40;20017;-77
2021/07/02 01:06:44;;;;;;;14.73;10.55;;;18.90;91.40;;;;;;3563284;40;20033;-77
2021/07/02 01:09:12;;;;;;;15.90;11.40;;;18.90;91.30;;;;;;3561702;40;20037;-75
2021/07/02 01:11:39;;;;;;;16.15;11.65;;;18.90;91.40;;;;;;3562335;40;20436;-77
2021/07/02 01:14:05;;;;;;;13.23;11.18;;;18.90;91.30;;;;;;3562674;40;20358;-76
2021/07/02 01:16:31;;;;;;;16.05;10.32;;;18.90;91.30;;;;;;3567250;40;20045;-77
2021/07/02 01:18:59;;;;;;;13.00;10.55;;;18.90;91.30;;;;;;3563835;40;20151;-77
2021/07/02 01:21:25;;;;;;;16.10;9.95;;;19.00;91.30;;;;;;3563946;40;20045;-77
2021/07/02 01:23:51;;;;;;;13.77;10.25;;;18.90;91.30;;;;;;3562215;40;20049;-77
2021/07/02 01:26:17;;;;;;;12.48;10.07;;;19.00;91.30;;;;;;3566075;40;20074;-77
2021/07/02 01:28:44;;;;;;;12.32;9.88;;;19.00;91.30;;;;;;3568680;40;20044;-77
2021/07/02 01:31:09;;;;;;;13.13;9.90;;;19.00;91.20;;;;;;3563767;40;20033;-76
2021/07/02 01:33:36;;;;;;;14.95;10.98;;;19.00;91.30;;;;;;3565620;40;20056;-77
2021/07/02 01:36:15;;;;;;;13.07;9.77;;;19.00;91.20;;;;;;3564579;40;20041;-76
2021/07/02 01:38:42;;;;;;;15.70;10.55;;;19.00;91.30;;;;;;3562686;40;20123;-77
2021/07/02 01:41:08;;;;;;;12.68;10.18;;;19.00;91.20;;;;;;3562736;40;20047;-77
2021/07/02 01:43:34;;;;;;;12.70;10.43;;;19.00;91.20;;;;;;3564798;40;20029;-77
2021/07/02 01:46:01;;;;;;;14.93;10.20;;;19.00;91.30;;;;;;3569402;40;20037;-76
2021/07/02 01:48:28;;;;;;;12.70;9.85;;;19.00;91.30;;;;;;3562365;40;20068;-77
2021/07/02 01:50:54;;;;;;;12.25;9.70;;;19.00;91.30;;;;;;3563489;40;20025;-76
2021/07/02 01:53:21;;;;;;;13.77;9.55;;;19.00;91.30;;;;;;3565035;40;20343;-77
2021/07/02 01:55:48;;;;;;;13.38;10.73;;;19.00;91.20;;;;;;3563218;40;20021;-77
2021/07/02 01:58:14;;;;;;;12.40;9.82;;;19.00;91.30;;;;;;3561629;40;20044;-77
2021/07/02 02:00:46;;;;;;;13.07;9.68;;;19.00;91.30;;;;;;3565624;40;20065;-77
2021/07/02 02:03:18;;;;;;;12.02;10.00;;;19.00;91.30;;;;;;3568460;40;20045;-77
2021/07/02 02:05:45;;;;;;;13.63;9.93;;;19.00;91.30;;;;;;3564300;40;20400;-77
2021/07/02 02:08:11;;;;;;;18.75;10.55;;;19.00;91.30;;;;;;3565720;40;20602;-76
2021/07/02 02:10:39;;;;;;;12.10;10.18;;;19.00;91.20;;;;;;3564440;40;20041;-77
2021/07/02 02:13:06;;;;;;;17.38;11.13;;;19.00;91.20;;;;;;3565065;40;20071;-77
2021/07/02 02:15:33;;;;;;;14.27;9.75;;;19.00;91.20;;;;;;3561270;40;20045;-77
2021/07/02 02:18:01;;;;;;;14.57;10.23;;;19.00;91.20;;;;;;3562874;40;20036;-77
2021/07/02 02:20:27;;;;;;;10.98;9.73;;;19.00;91.50;;;;;;3567241;40;20045;-76
2021/07/02 02:22:54;;;;;;;13.95;10.18;;;19.00;91.20;;;;;;3563041;40;20029;-76
2021/07/02 02:25:21;;;;;;;13.95;10.32;;;19.00;91.20;;;;;;3561806;40;20033;-77
2021/07/02 02:27:50;;;;;;;12.13;9.73;;;19.00;91.10;;;;;;3565005;40;20041;-77
2021/07/02 02:30:16;;;;;;;15.52;10.75;;;19.00;91.10;;;;;;3565176;40;20021;-76
2021/07/02 02:32:42;;;;;;;13.30;9.93;;;19.00;91.20;;;;;;3567508;40;20053;-76
2021/07/02 02:35:09;;;;;;;10.30;9.20;;;19.00;91.10;;;;;;3567966;40;20041;-76
2021/07/02 02:37:36;;;;;;;12.68;9.45;;;19.00;91.00;;;;;;3563027;40;20049;-76
2021/07/02 02:40:05;;;;;;;12.00;8.90;;;19.00;91.30;;;;;;3561786;40;20026;-76
2021/07/02 02:42:30;;;;;;;14.68;9.45;;;19.00;91.00;;;;;;3562340;40;20529;-77
2021/07/02 02:44:56;;;;;;;13.20;8.82;;;19.00;90.90;;;;;;3562908;40;20034;-76
2021/07/02 02:47:22;;;;;;;11.45;8.60;;;19.00;90.80;;;;;;3566392;40;20033;-76
2021/07/02 02:49:48;;;;;;;12.27;8.77;;;19.00;90.80;;;;;;3566086;40;20080;-76
2021/07/02 02:52:14;;;;;;;10.80;9.23;;;19.00;90.90;;;;;;3564730;40;20367;-77
2021/07/02 02:54:40;;;;;;;13.30;9.30;;;19.00;90.90;;;;;;3560192;40;20112;-77
2021/07/02 02:57:07;;;;;;;11.98;8.95;;;19.00;90.90;;;;;;3561229;40;20033;-77
2021/07/02 02:59:39;;;;;;;11.90;8.40;;;19.00;90.90;;;;;;3564901;40;20030;-76
2021/07/02 03:02:06;;;;;;;12.52;9.07;;;19.00;91.00;;;;;;3565597;40;20063;-76
2021/07/02 03:04:35;;;;;;;10.30;8.57;;;19.00;91.10;;;;;;3566625;40;20029;-77
2021/07/02 03:07:05;;;;;;;15.27;9.75;;;19.00;91.10;;;;;;3568320;40;20398;-76
2021/07/02 03:09:33;;;;;;;12.70;9.20;;;19.00;91.10;;;;;;3561588;40;20029;-77
2021/07/02 03:12:00;;;;;;;16.20;9.02;;;19.00;91.00;;;;;;3562691;40;20041;-76
2021/07/02 03:14:28;;;;;;;12.63;8.43;;;19.00;91.10;;;;;;3565164;40;20033;-77
2021/07/02 03:16:53;;;;;;;13.75;9.80;;;19.00;91.50;;;;;;3564527;40;20127;-77
2021/07/02 03:19:20;;;;;;;14.80;10.30;;;19.00;91.20;;;;;;3561783;40;20038;-75
2021/07/02 03:21:47;;;;;;;14.52;10.80;;;19.00;91.20;;;;;;3563705;40;20126;-76
2021/07/02 03:24:13;;;;;;;14.80;10.57;;;19.00;91.30;;;;;;3564069;40;20053;-76
2021/07/02 03:26:40;;;;;;;11.27;9.70;;;19.00;91.30;;;;;;3557480;40;20488;-76
2021/07/02 03:29:06;;;;;;;11.60;8.55;;;19.00;91.20;;;;;;3567467;40;20053;-76
2021/07/02 03:31:33;;;;;;;11.77;9.52;;;19.00;91.20;;;;;;3563472;40;20103;-76
2021/07/02 03:33:59;;;;;;;12.55;9.57;;;19.00;91.20;;;;;;3565905;40;20029;-76
2021/07/02 03:36:26;;;;;;;16.80;10.65;;;19.10;91.20;;;;;;3567091;40;20017;-76
2021/07/02 03:38:51;;;;;;;14.50;9.75;;;19.00;91.20;;;;;;3563146;40;20076;-76
2021/07/02 03:41:18;;;;;;;11.13;8.90;;;19.00;91.20;;;;;;3564020;40;20980;-76
2021/07/02 03:43:43;;;;;;;14.13;9.32;;;19.00;91.20;;;;;;3561431;40;20038;-76
2021/07/02 03:46:10;;;;;;;12.07;10.00;;;19.00;91.30;;;;;;3562385;40;20041;-74
2021/07/02 03:48:38;;;;;;;11.82;9.30;;;19.10;91.30;;;;;;3563430;40;20068;-76
2021/07/02 03:51:04;;;;;;;11.40;8.77;;;19.10;91.30;;;;;;3562924;40;20407;-76
2021/07/02 03:53:31;;;;;;;13.55;10.13;;;19.10;91.30;;;;;;3567708;40;20072;-76
2021/07/02 03:55:57;;;;;;;13.32;9.60;;;19.10;91.30;;;;;;3565069;40;20025;-76
2021/07/02 03:58:23;;;;;;;15.68;10.30;;;19.10;91.30;;;;;;3567977;40;20069;-76
2021/07/02 04:00:48;;;;;;;12.65;10.30;;;19.10;91.30;;;;;;3567267;40;20029;-76
2021/07/02 04:03:15;;;;;;;13.05;10.15;;;19.10;91.30;;;;;;3565548;40;20055;-76
2021/07/02 04:05:44;;;;;;;14.95;10.05;;;19.10;91.30;;;;;;3564102;40;20037;-76
2021/07/02 04:08:11;;;;;;;14.88;10.45;;;19.10;91.30;;;;;;3567915;40;20081;-76
2021/07/02 04:10:37;;;;;;;13.90;10.52;;;19.10;91.30;;;;;;3561473;40;20038;-76
2021/07/02 04:13:03;;;;;;;13.95;9.27;;;19.10;91.30;;;;;;3563506;40;20029;-76
2021/07/02 04:15:28;;;;;;;17.90;11.45;;;19.10;91.30;;;;;;3560993;40;20073;-76
2021/07/02 04:17:54;;;;;;;17.35;11.20;;;19.10;91.40;;;;;;3563383;40;20029;-76
2021/07/02 04:20:20;;;;;;;14.02;11.25;;;19.10;91.40;;;;;;3565642;40;20053;-76
2021/07/02 04:22:45;;;;;;;16.38;10.95;;;19.20;91.40;;;;;;3565362;40;20059;-76
2021/07/02 04:25:12;;;;;;;14.02;10.35;;;19.10;91.40;;;;;;3566005;40;20476;-76
2021/07/02 04:27:41;;;;;;;13.85;9.75;;;19.10;91.50;;;;;;3566507;40;20069;-77
2021/07/02 04:30:08;;;;;;;16.02;11.13;;;19.20;91.50;;;;;;3568524;40;20511;-76
2021/07/02 04:32:35;;;;;;;17.60;11.45;;;19.10;91.40;;;;;;3562145;40;20029;-76
2021/07/02 04:35:01;;;;;;;15.48;11.10;;;19.10;91.40;;;;;;3563745;40;20358;-77
2021/07/02 04:37:26;;;;;;;22.58;13.52;;;19.20;91.40;;;;;;3564003;40;20090;-76
2021/07/02 04:39:52;;;;;;;19.33;13.90;;;19.20;91.70;;;;;;3564870;40;20042;-76
2021/07/02 04:42:18;;;;;;;20.33;14.40;;;19.20;91.50;;;;;;3565713;40;20069;-76
2021/07/02 04:44:44;;;;;;;20.88;14.60;;;19.20;91.50;;;;;;3562553;40;20080;-76
2021/07/02 04:47:09;;;;;;;20.13;14.25;;;19.20;91.50;;;;;;3567087;40;20049;-77
2021/07/02 04:49:35;;;;;;;20.85;14.00;;;19.30;91.40;;;;;;3568236;40;20041;-77
2021/07/02 04:52:01;;;;;;;21.55;14.25;;;19.30;91.30;;;;;;3567151;40;20029;-76
2021/07/02 04:54:27;;;;;;;24.40;15.35;;;19.30;91.30;;;;;;3566260;40;20037;-76
2021/07/02 04:56:53;;;;;;;19.45;13.55;;;19.30;91.20;;;;;;3565889;40;20127;-76
2021/07/02 04:59:21;;;;;;;23.85;14.60;;;19.30;91.20;;;;;;3563966;40;20968;-73
2021/07/02 05:01:47;;;;;;;20.15;14.20;;;19.30;91.10;;;;;;3562772;40;20028;-74
2021/07/02 05:04:13;;;;;;;22.02;14.65;;;19.30;91.00;;;;;;3567929;40;20044;-75
2021/07/02 05:06:38;;;;;;;23.25;14.00;;;19.40;90.90;;;;;;3566763;40;20017;-74
2021/07/02 05:09:05;;;;;;;21.88;14.88;;;19.30;90.90;;;;;;3567699;40;20134;-74
2021/07/02 05:11:34;;;;;;;22.20;14.95;;;19.40;90.90;;;;;;3563452;40;20127;-74
2021/07/02 05:14:02;;;;;;;24.98;15.60;;;19.40;90.80;;;;;;3565035;40;20309;-76
2021/07/02 05:16:27;;;;;;;24.90;14.23;;;19.40;90.80;;;;;;3564511;40;20026;-76
2021/07/02 05:18:53;;;;;;;22.20;15.30;;;19.40;90.70;;;;;;3567278;40;20040;-76
2021/07/02 05:21:19;;;;;;;22.08;14.90;;;19.40;90.70;;;;;;3569016;40;20025;-75
2021/07/02 05:23:44;;;;;;;19.23;14.30;;;19.50;90.60;;;;;;3566784;40;20025;-76
2021/07/02 05:26:12;;;;;;;24.70;15.80;;;19.50;90.60;;;;;;3564997;40;20036;-76
2021/07/02 05:28:38;;;;;;;19.92;14.13;;;19.50;90.50;;;;;;3564445;40;20046;-76
2021/07/02 05:31:04;;;;;;;21.10;14.55;;;19.50;90.50;;;;;;3565790;40;20029;-76
2021/07/02 05:33:30;;;;;;;22.63;14.63;;;19.50;90.50;;;;;;3567246;40;20038;-76
2021/07/02 05:35:56;;;;;;;22.42;15.38;;;19.60;90.50;;;;;;3568242;40;20028;-76
2021/07/02 05:38:22;;;;;;;21.08;15.23;;;19.60;90.50;;;;;;3562487;40;20033;-77
2021/07/02 05:40:50;;;;;;;23.00;16.20;;;19.70;90.40;;;;;;3564863;40;20030;-77
2021/07/02 05:43:16;;;;;;;24.75;16.33;;;19.80;90.30;;;;;;3561646;40;20033;-76
2021/07/02 05:45:42;;;;;;;23.40;14.68;;;19.90;90.10;;;;;;3564219;40;20747;-76
2021/07/02 05:48:08;;;;;;;28.02;15.02;;;19.90;89.80;;;;;;3554494;40;20025;-76
2021/07/02 05:50:34;;;;;;;19.30;14.30;;;20.00;89.20;;;;;;3566952;40;20417;-76
2021/07/02 05:53:00;;;;;;;26.35;14.95;;;20.10;88.90;;;;;;3563756;40;20085;-76
2021/07/02 05:55:26;;;;;;;25.05;16.33;;;20.30;88.20;;;;;;3560262;40;20407;-75
2021/07/02 05:57:52;;;;;;;18.00;13.43;;;20.30;87.80;;;;;;3564470;40;20035;-76
2021/07/02 06:00:19;;;;;;;20.85;14.02;;;20.50;87.50;;;;;;3563947;40;20053;-75
2021/07/02 06:02:45;;;;;;;22.48;13.07;;;20.60;86.90;;;;;;3564605;40;20466;-74
2021/07/02 06:05:11;;;;;;;17.75;12.85;;;20.60;86.50;;;;;;3561660;40;20044;-75
2021/07/02 06:07:48;;;;;;;21.95;13.90;;;20.60;86.20;;;;;;3560464;40;20118;-75
2021/07/02 06:10:16;;;;;;;19.92;14.40;;;20.60;85.50;;;;;;3561713;40;20037;-75
2021/07/02 06:12:42;;;;;;;18.63;12.70;;;20.60;84.80;;;;;;3561408;40;20444;-76
2021/07/02 06:15:08;;;;;;;18.63;13.15;;;20.60;84.80;;;;;;3561511;40;20844;-75
2021/07/02 06:17:34;;;;;;;17.25;12.82;;;20.60;85.30;;;;;;3564904;40;20036;-75
2021/07/02 06:20:00;;;;;;;19.92;13.43;;;20.50;85.20;;;;;;3563062;40;20111;-75
2021/07/02 06:22:26;;;;;;;17.10;12.20;;;20.50;84.90;;;;;;3565822;40;20036;-75
2021/07/02 06:24:52;;;;;;;20.80;12.38;;;20.50;84.70;;;;;;3563727;40;20081;-75
2021/07/02 06:27:17;;;;;;;17.17;12.70;;;20.50;85.20;;;;;;3565425;40;20089;-75
2021/07/02 06:29:43;;;;;;;22.63;13.73;;;20.50;85.00;;;;;;3565800;40;20076;-75
2021/07/02 06:32:08;;;;;;;19.65;13.30;;;20.50;85.00;;;;;;3563471;40;20114;-75
2021/07/02 06:34:34;;;;;;;18.42;13.05;;;20.50;85.10;;;;;;3562931;40;20037;-75
2021/07/02 06:37:00;;;;;;;17.38;12.80;;;20.60;85.70;;;;;;3565331;40;20026;-76
2021/07/02 06:39:25;;;;;;;17.08;11.95;;;20.60;85.80;;;;;;3563359;40;20064;-76
2021/07/02 06:41:51;;;;;;;16.70;13.15;;;20.70;86.00;;;;;;3564095;40;20036;-75
2021/07/02 06:44:17;;;;;;;16.17;12.48;;;20.70;86.20;;;;;;3568008;40;20041;-75
2021/07/02 06:46:42;;;;;;;21.23;12.60;;;20.80;86.00;;;;;;3561995;40;20042;-75
2021/07/02 06:49:08;;;;;;;19.80;12.57;;;20.80;84.80;;;;;;3567007;40;20069;-74
2021/07/02 06:51:34;;;;;;;16.17;12.50;;;20.80;84.20;;;;;;3566462;40;20048;-74
2021/07/02 06:54:01;;;;;;;19.67;11.73;;;20.90;83.80;;;;;;3563490;40;20032;-75
2021/07/02 06:56:28;;;;;;;18.50;12.93;;;20.90;83.90;;;;;;3563888;40;20377;-75
2021/07/02 06:58:55;;;;;;;18.02;11.95;;;20.90;83.70;;;;;;3568546;40;20941;-76
2021/07/02 07:01:21;;;;;;;15.85;12.48;;;20.90;84.00;;;;;;3568592;40;20039;-76
2021/07/02 07:03:47;;;;;;;15.32;11.57;;;21.00;83.80;;;;;;3567824;40;20026;-75
2021/07/02 07:06:13;;;;;;;17.83;10.88;;;21.10;83.00;;;;;;3567231;40;20861;-71
2021/07/02 07:08:39;;;;;;;16.13;10.57;;;21.20;83.10;;;;;;3565111;40;20075;-70
2021/07/02 07:11:05;;;;;;;16.40;11.18;;;21.30;82.00;;;;;;3562776;40;20122;-69
2021/07/02 07:13:30;;;;;;;17.90;11.00;;;21.40;81.50;;;;;;3563530;40;20049;-71
2021/07/02 07:15:56;;;;;;;17.30;10.75;;;21.40;81.60;;;;;;3559405;40;20380;-72
2021/07/02 07:18:22;;;;;;;13.43;11.18;;;21.50;81.40;;;;;;3564937;40;20127;-72
2021/07/02 07:20:48;;;;;;;16.58;10.95;;;21.50;80.70;;;;;;3566601;40;20041;-71
2021/07/02 07:23:14;;;;;;;17.77;10.60;;;21.60;80.70;;;;;;3565776;40;20040;-70
2021/07/02 07:25:40;;;;;;;13.05;10.15;;;21.70;81.00;;;;;;3565133;40;20033;-72
2021/07/02 07:28:06;;;;;;;11.90;10.27;;;21.90;80.40;;;;;;3564419;40;20438;-73
2021/07/02 07:30:32;;;;;;;16.55;10.25;;;22.00;79.20;;;;;;3561549;40;20033;-71
2021/07/02 07:32:58;;;;;;;12.68;10.90;;;22.00;78.20;;;;;;3569655;40;20370;-73
2021/07/02 07:35:27;;;;;;;16.48;10.15;;;22.00;78.60;;;;;;3568470;40;20044;-72
2021/07/02 07:37:55;;;;;;;12.68;9.35;;;21.90;78.40;;;;;;3565054;40;20098;-73
2021/07/02 07:40:22;;;;;;;13.18;10.15;;;21.90;77.80;;;;;;3563991;40;20054;-72
2021/07/02 07:42:48;;;;;;;16.23;11.70;;;21.90;79.30;;;;;;3565935;40;20029;-73
2021/07/02 07:45:14;;;;;;;17.27;9.35;;;21.90;80.20;;;;;;3565470;40;20137;-72
2021/07/02 07:47:39;;;;;;;16.15;10.07;;;22.00;78.20;;;;;;3560240;40;20021;-74
2021/07/02 07:50:10;;;;;;;12.70;9.68;;;22.10;78.00;;;;;;3561949;40;20029;-75
2021/07/02 07:52:46;;;;;;;13.05;9.35;;;22.10;77.70;;;;;;3561806;40;20722;-74
2021/07/02 07:55:12;;;;;;;14.38;9.35;;;22.10;77.30;;;;;;3566722;40;20072;-73
2021/07/02 07:57:38;;;;;;;15.80;9.50;;;22.10;76.50;;;;;;3565512;40;20029;-71
2021/07/02 08:00:06;;;;;;;11.48;9.80;;;22.00;76.60;;;;;;3565750;40;20315;-71
2021/07/02 08:02:31;;;;;;;19.52;9.43;;;22.00;77.30;;;;;;3563042;40;20029;-72
2021/07/02 08:04:57;;;;;;;14.85;9.02;;;22.20;76.00;;;;;;3562367;40;20768;-73
2021/07/02 08:07:23;;;;;;;12.80;8.85;;;22.30;75.10;;;;;;3560958;40;20482;-71
2021/07/02 08:09:49;;;;;;;11.30;8.70;;;22.40;75.90;;;;;;3564266;40;20045;-73
2021/07/02 08:12:15;;;;;;;10.77;8.80;;;22.50;76.20;;;;;;3565545;40;20682;-68
2021/07/02 08:14:41;;;;;;;14.88;10.10;;;22.60;76.30;;;;;;3565246;40;20041;-68
2021/07/02 08:17:07;;;;;;;14.02;9.25;;;22.70;74.60;;;;;;3567488;40;20021;-68
2021/07/02 08:19:34;;;;;;;14.57;9.15;;;22.70;73.90;;;;;;3568427;40;20426;-70
2021/07/02 08:21:59;;;;;;;10.73;8.15;;;22.70;72.50;;;;;;3568377;40;20033;-66
2021/07/02 08:24:25;;;;;;;11.15;8.48;;;22.70;72.90;;;;;;3561330;40;20359;-67
2021/07/02 08:26:56;;;;;;;13.23;8.20;;;22.60;73.70;;;;;;3567399;40;20052;-66
2021/07/02 08:29:23;;;;;;;9.05;7.57;;;22.60;73.90;;;;;;3563678;40;20076;-67
2021/07/02 08:31:49;;;;;;;10.90;8.50;;;22.60;73.10;;;;;;3563517;40;20060;-67
2021/07/02 08:34:15;;;;;;;8.80;7.72;;;22.70;74.40;;;;;;3563640;40;20307;-67
2021/07/02 08:36:40;;;;;;;8.40;7.50;;;22.70;74.30;;;;;;3561821;40;20048;-67
2021/07/02 08:39:06;;;;;;;8.43;6.75;;;22.60;74.10;;;;;;3561659;40;20281;-67
2021/07/02 08:41:32;;;;;;;10.68;6.50;;;22.60;74.00;;;;;;3561926;40;20021;-67
2021/07/02 08:43:58;;;;;;;12.10;7.20;;;22.70;72.50;;;;;;3563824;40;20040;-66
2021/07/02 08:46:25;;;;;;;10.45;6.55;;;22.70;72.70;;;;;;3564768;40;20248;-67
2021/07/02 08:48:51;;;;;;;11.07;6.70;;;22.80;71.70;;;;;;3566021;40;20032;-67
2021/07/02 08:51:18;;;;;;;11.65;6.35;;;22.90;71.00;;;;;;3561763;40;20041;-67
2021/07/02 08:53:44;;;;;;;9.23;6.60;;;23.00;70.10;;;;;;3560413;40;20393;-67
2021/07/02 08:56:10;;;;;;;8.85;6.75;;;23.10;70.40;;;;;;3558947;40;20501;-67
2021/07/02 08:58:37;;;;;;;8.35;5.75;;;23.10;70.10;;;;;;3562357;40;20048;-66
2021/07/02 09:01:08;;;;;;;9.73;7.70;;;23.20;72.00;;;;;;3561088;40;20055;-67
2021/07/02 09:03:36;;;;;;;10.40;7.20;;;23.30;70.00;;;;;;3565301;40;20045;-66
2021/07/02 09:06:15;;;;;;;8.05;5.63;;;23.50;69.70;;;;;;3565815;40;20060;-67
2021/07/02 09:09:00;;;;;;;11.95;6.43;;;23.60;68.80;;;;;;3565759;40;20043;-72
2021/07/02 09:11:31;;;;;;;7.10;5.07;;;23.80;69.00;;;;;;3559225;40;20048;-72
2021/07/02 09:13:57;;;;;;;7.30;5.32;;;23.90;64.00;;;;;;3561223;40;20129;-72
2021/07/02 09:16:36;;;;;;;7.07;4.97;;;24.00;65.00;;;;;;3564563;40;20045;-72
2021/07/02 09:19:26;;;;;;;11.60;4.97;;;23.80;68.20;;;;;;3564672;40;20045;-72
2021/07/02 09:21:52;;;;;;;7.10;5.68;;;23.70;68.30;;;;;;3570582;40;20026;-72
2021/07/02 09:24:43;;;;;;;5.80;5.03;;;23.60;68.10;;;;;;3561455;40;20029;-73
2021/07/02 09:27:29;;;;;;;6.20;4.93;;;23.60;68.60;;;;;;3559471;40;20625;-72
2021/07/02 09:30:11;;;;;;;8.80;5.30;;;23.60;65.00;;;;;;3559789;40;20049;-72
2021/07/02 09:32:52;;;;;;;7.85;5.50;;;23.60;64.70;;;;;;3563876;40;20080;-71
2021/07/02 09:35:20;;;;;;;8.27;5.70;;;23.70;64.30;;;;;;3565431;40;20063;-72
2021/07/02 09:37:52;;;;;;;6.63;4.72;;;23.70;65.00;;;;;;3571470;40;20017;-72
2021/07/02 09:40:24;;;;;;;6.75;4.18;;;23.70;63.40;;;;;;3564430;40;20040;-72
2021/07/02 09:43:17;;;;;;;6.90;4.90;;;23.70;63.60;;;;;;3565377;40;20080;-72
2021/07/02 09:45:56;;;;;;;6.63;5.00;;;23.90;62.70;;;;;;3563443;40;20041;-73
2021/07/02 09:48:27;;;;;;;6.78;4.93;;;24.10;62.80;;;;;;3567326;40;20686;-73
2021/07/02 09:50:54;;;;;;;6.93;5.55;;;24.10;62.90;;;;;;3564513;40;20037;-72
2021/07/02 09:53:24;;;;;;;6.30;5.30;;;24.10;63.20;;;;;;3562719;40;20033;-68
2021/07/02 09:55:52;;;;;;;6.20;5.53;;;24.30;62.30;;;;;;3565483;40;20060;-70
2021/07/02 09:58:29;;;;;;;11.75;5.03;;;24.30;63.50;;;;;;3565814;40;20955;-73
2021/07/02 10:01:00;;;;;;;5.97;4.50;;;24.40;63.60;;;;;;3567585;40;20066;-72
2021/07/02 10:03:29;;;;;;;7.03;4.70;;;24.40;61.70;;;;;;3560566;40;20410;-73
2021/07/02 10:05:57;;;;;;;6.28;4.78;;;24.20;62.20;;;;;;3560907;40;20033;-73
2021/07/02 10:08:28;;;;;;;9.52;5.18;;;24.20;60.90;;;;;;3564863;40;20037;-73
2021/07/02 10:10:56;;;;;;;8.93;5.97;;;24.30;62.00;;;;;;3571014;40;20067;-72
2021/07/02 10:13:26;;;;;;;7.57;5.50;;;24.30;61.30;;;;;;3564607;40;20032;-72
2021/07/02 10:15:54;;;;;;;10.90;5.93;;;24.40;61.40;;;;;;3562532;40;20022;-73
2021/07/02 10:18:21;;;;;;;9.98;6.45;;;24.20;60.80;;;;;;3559380;40;20077;-72
2021/07/02 10:20:47;;;;;;;9.05;6.70;;;24.00;62.70;;;;;;3561789;40;20835;-72
2021/07/02 10:23:25;;;;;;;9.73;7.18;;;23.90;64.30;;;;;;3565101;40;20048;-72
2021/07/02 10:25:53;;;;;;;7.25;6.00;;;23.70;65.30;;;;;;3561087;40;20073;-73
2021/07/02 10:28:21;;;;;;;9.50;6.45;;;23.60;66.50;;;;;;3563308;40;20034;-73
2021/07/02 10:30:48;;;;;;;6.85;5.93;;;23.50;66.30;;;;;;3562904;40;20719;-74
2021/07/02 10:33:15;;;;;;;9.40;6.38;;;23.60;66.70;;;;;;3559270;40;20451;-73
2021/07/02 10:35:47;;;;;;;9.52;5.72;;;23.60;64.40;;;;;;3560369;40;20036;-73
2021/07/02 10:38:13;;;;;;;8.98;5.45;;;23.80;62.00;;;;;;3566454;40;20114;-73
2021/07/02 10:40:43;;;;;;;13.07;6.95;;;24.00;62.40;;;;;;3565405;40;20821;-73
2021/07/02 10:43:12;;;;;;;12.15;6.93;;;24.10;63.20;;;;;;3562354;40;20821;-73
2021/07/02 10:45:59;;;;;;;9.68;6.15;;;24.10;63.00;;;;;;3565453;40;20029;-73
2021/07/02 10:48:47;;;;;;;9.18;5.03;;;24.20;62.20;;;;;;3561939;40;20428;-73
2021/07/02 10:51:31;;;;;;;6.57;5.85;;;24.30;60.60;;;;;;3556946;40;20521;-73
2021/07/02 10:54:12;;;;;;;6.20;5.43;;;24.40;60.50;;;;;;3561594;40;20037;-72
2021/07/02 10:56:38;;;;;;;8.13;4.75;;;24.50;59.30;;;;;;3562566;40;20499;-70
2021/07/02 10:59:04;;;;;;;7.13;4.80;;;24.40;59.70;;;;;;3562318;40;20610;-70
2021/07/02 11:01:33;;;;;;;6.07;5.20;;;24.50;60.00;;;;;;3562990;40;20044;-73
2021/07/02 11:04:34;;;;;;;8.75;4.95;;;24.50;60.00;;;;;;3567029;40;20422;-73
2021/07/02 11:07:25;;;;;;;8.05;4.97;;;24.50;59.70;;;;;;3567335;40;20033;-73
2021/07/02 11:10:05;;;;;;;4.88;3.90;;;24.60;58.90;;;;;;3567467;40;20318;-74
2021/07/02 11:12:32;;;;;;;5.43;4.53;;;24.60;59.20;;;;;;3565504;40;20030;-74
2021/07/02 11:14:58;;;;;;;4.97;3.88;;;24.60;58.30;;;;;;3563246;40;20054;-74
2021/07/02 11:17:26;;;;;;;7.15;4.60;;;24.60;58.50;;;;;;3563734;40;20033;-74
2021/07/02 11:20:07;;;;;;;4.75;4.13;;;24.60;58.10;;;;;;3564833;40;20041;-74
2021/07/02 11:22:41;;;;;;;5.30;4.10;;;24.50;58.00;;;;;;3563977;40;20051;-74
2021/07/02 11:25:08;;;;;;;6.65;4.05;;;24.40;57.70;;;;;;3562484;40;20778;-74
2021/07/02 11:27:44;;;;;;;5.18;3.80;;;24.40;57.40;;;;;;3559907;40;20045;-73
2021/07/02 11:30:18;;;;;;;4.43;3.88;;;24.50;57.40;;;;;;3560614;40;20053;-73
2021/07/02 11:32:49;;;;;;;5.75;3.58;;;24.60;55.20;;;;;;3563424;40;20130;-73
2021/07/02 11:35:29;;;;;;;4.55;3.67;;;24.50;55.20;;;;;;3563757;40;20029;-73
2021/07/02 11:38:05;;;;;;;6.70;4.78;;;24.50;56.90;;;;;;3559152;40;20049;-73
2021/07/02 11:40:37;;;;;;;5.15;4.13;;;24.60;57.90;;;;;;3557109;40;20028;-73
2021/07/02 11:43:08;;;;;;;4.43;3.60;;;24.70;56.10;;;;;;3560296;40;20043;-71
2021/07/02 11:45:40;;;;;;;6.40;4.10;;;24.80;56.40;;;;;;3558498;40;20389;-73
2021/07/02 11:48:09;;;;;;;8.07;4.30;;;24.70;55.90;;;;;;3563809;40;20122;-73
2021/07/02 11:50:42;;;;;;;4.25;3.80;;;24.70;56.60;;;;;;3565583;40;20090;-71
2021/07/02 11:53:33;;;;;;;4.30;3.80;;;24.70;55.90;;;;;;3566181;40;20116;-72
2021/07/02 11:56:09;;;;;;;7.47;4.88;;;24.70;56.00;;;;;;3567755;40;20052;-72
2021/07/02 11:58:40;;;;;;;5.70;4.10;;;24.70;57.10;;;;;;3565580;40;20047;-72
2021/07/02 12:01:09;;;;;;;6.47;3.90;;;24.80;56.20;;;;;;3566709;40;20041;-70
2021/07/02 12:03:37;;;;;;;9.38;3.97;;;24.90;56.90;;;;;;3564049;40;20489;-72
2021/07/02 12:06:04;;;;;;;6.65;4.30;;;24.90;56.50;;;;;;3566594;40;20040;-72
2021/07/02 12:08:32;;;;;;;7.57;4.05;;;24.90;54.90;;;;;;3565518;40;20496;-69
2021/07/02 12:11:03;;;;;;;7.28;3.70;;;24.90;55.70;;;;;;3566616;40;20045;-72
2021/07/02 12:13:33;;;;;;;6.07;4.15;;;24.90;55.90;;;;;;3568195;40;20039;-72
2021/07/02 12:16:03;;;;;;;4.25;3.85;;;25.00;57.00;;;;;;3569186;40;20102;-72
2021/07/02 12:18:29;;;;;;;6.18;4.13;;;25.00;55.80;;;;;;3562479;40;20032;-71
2021/07/02 12:21:10;;;;;;;5.88;4.30;;;25.10;55.90;;;;;;3560870;40;20055;-72
2021/07/02 12:23:39;;;;;;;8.90;4.88;;;25.20;56.50;;;;;;3564740;40;20052;-71
2021/07/02 12:26:22;;;;;;;5.82;4.38;;;25.10;56.90;;;;;;3563395;40;20722;-72
2021/07/02 12:28:56;;;;;;;9.70;6.13;;;25.00;56.70;;;;;;3565717;40;20515;-72
2021/07/02 12:31:35;;;;;;;7.68;4.90;;;24.80;57.00;;;;;;3560454;40;20905;-71
2021/07/02 12:34:01;;;;;;;7.28;5.15;;;24.80;56.60;;;;;;3564966;40;20036;-72
2021/07/02 12:36:28;;;;;;;6.63;4.40;;;24.80;56.90;;;;;;3565719;40;20046;-72
2021/07/02 12:39:04;;;;;;;5.15;4.65;;;24.80;58.10;;;;;;3562721;40;20041;-72
2021/07/02 12:41:38;;;;;;;10.07;4.88;;;24.80;58.50;;;;;;3563595;40;20901;-72